Renville, Minnesota
Current Conditions -  °F | °C
As of 7:13 AM on Wednesday 22 Oct 2014 (Local Time) from KOVL Reporting Station
Thunderstorm Thunderstorm  
Wind Chill:   Ceiling: 4400
Heat Index:   Visibility: 7mi
Dew Point:   Wind: 16mph
Humidity: 81%   Direction: 150°SSE
Pressure: 30.07"   Gusts: 24mph
Location:  44.79°N, 95.21°W
Report Text: KOVL 221213Z AUTO 15014G21KT 7SM -TSRA BKN044 BKN060 08/05 A3007 RMK AO2 LTG DSNT N P0002
Loading
Personal Weather Stations






























Interactive Weather Map
Tropical Storm Tracking
New forecast layout! Learn more

10-Day Weather Forecast

Advertisements
Track Severe Weather on mobile